createdAt,value
2018-12-29T00:00:15.763Z,3.96
2018-12-29T00:02:43.997Z,3.98
2018-12-29T00:05:12.593Z,3.98
2018-12-29T00:07:40.862Z,3.07
2018-12-29T00:10:08.817Z,4.00
2018-12-29T00:12:37.227Z,4.01
2018-12-29T00:15:05.997Z,4.01
2018-12-29T00:17:34.274Z,4.01
2018-12-29T00:20:03.530Z,4.02
2018-12-29T00:22:32.639Z,4.03
2018-12-29T00:25:00.699Z,4.00
2018-12-29T00:27:29.486Z,4.02
2018-12-29T00:29:57.483Z,4.00
2018-12-29T00:32:25.506Z,4.00
2018-12-29T00:34:54.378Z,3.99
2018-12-29T00:37:22.515Z,4.02
2018-12-29T00:39:50.638Z,4.01
2018-12-29T00:42:19.638Z,3.62
2018-12-29T00:44:48.259Z,3.95
2018-12-29T00:47:17.145Z,3.93
2018-12-29T00:49:47.196Z,3.92
2018-12-29T00:52:15.230Z,3.93
2018-12-29T00:54:43.955Z,3.92
2018-12-29T00:57:12.055Z,3.93
2018-12-29T00:59:40.081Z,3.79
2018-12-29T01:02:08.193Z,3.91
2018-12-29T01:04:36.602Z,3.92
2018-12-29T01:07:04.768Z,3.92
2018-12-29T01:09:33.024Z,3.78
2018-12-29T01:12:01.120Z,3.90
2018-12-29T01:14:29.221Z,3.90
2018-12-29T01:16:57.613Z,3.89
2018-12-29T01:19:26.458Z,3.87
2018-12-29T01:21:54.295Z,3.72
2018-12-29T01:24:22.273Z,3.83
2018-12-29T01:26:50.353Z,3.80
2018-12-29T01:29:18.573Z,3.80
2018-12-29T01:31:46.530Z,3.80
2018-12-29T01:34:14.702Z,3.80
2018-12-29T01:36:42.649Z,3.80
2018-12-29T01:39:11.034Z,3.81
2018-12-29T01:41:39.113Z,3.54
2018-12-29T01:44:07.055Z,2.94
2018-12-29T01:46:35.258Z,3.78
2018-12-29T01:49:03.408Z,3.32
2018-12-29T01:51:31.774Z,3.75
2018-12-29T01:54:00.166Z,3.63
2018-12-29T01:56:29.101Z,3.75
2018-12-29T01:58:57.222Z,3.73
2018-12-29T02:01:25.236Z,3.73
2018-12-29T02:03:53.603Z,3.71
2018-12-29T02:06:21.767Z,3.71
2018-12-29T02:08:50.070Z,3.72
2018-12-29T02:11:18.412Z,3.72
2018-12-29T02:13:46.774Z,3.71
2018-12-29T02:16:14.995Z,3.70
2018-12-29T02:18:43.954Z,3.71
2018-12-29T02:21:11.941Z,3.71
2018-12-29T02:23:41.214Z,3.53
2018-12-29T02:26:09.921Z,3.69
2018-12-29T02:28:38.080Z,3.69
2018-12-29T02:31:06.571Z,3.69
2018-12-29T02:33:34.983Z,3.69
2018-12-29T02:36:02.923Z,3.69
2018-12-29T02:38:31.112Z,3.68
2018-12-29T02:40:59.762Z,3.68
2018-12-29T02:43:28.323Z,3.67
2018-12-29T02:45:56.297Z,3.65
2018-12-29T02:48:24.976Z,3.65
2018-12-29T02:50:53.064Z,3.65
2018-12-29T02:53:21.314Z,3.64
2018-12-29T02:55:49.821Z,3.64
2018-12-29T02:58:18.499Z,3.64
2018-12-29T03:00:46.575Z,3.64
2018-12-29T03:03:15.065Z,3.65
2018-12-29T03:05:43.340Z,3.66
2018-12-29T03:08:11.516Z,3.65
2018-12-29T03:10:40.590Z,3.64
2018-12-29T03:13:09.169Z,3.60
2018-12-29T03:15:41.105Z,3.66
2018-12-29T03:18:05.444Z,3.66
2018-12-29T03:20:33.369Z,3.37
2018-12-29T03:23:01.787Z,3.64
2018-12-29T03:25:30.403Z,3.66
2018-12-29T03:27:58.607Z,3.67
2018-12-29T03:30:27.079Z,3.67
2018-12-29T03:32:55.079Z,3.69
2018-12-29T03:35:23.556Z,3.43
2018-12-29T03:37:51.640Z,3.70
2018-12-29T03:40:20.434Z,3.70
2018-12-29T03:42:48.781Z,3.71
2018-12-29T03:45:16.956Z,3.73
2018-12-29T03:47:47.041Z,3.74
2018-12-29T03:50:16.171Z,3.74
2018-12-29T03:52:45.420Z,3.71
2018-12-29T03:55:15.158Z,3.69
2018-12-29T03:57:43.448Z,3.68
2018-12-29T04:00:11.426Z,3.70
2018-12-29T04:02:39.850Z,3.46
2018-12-29T04:05:08.029Z,3.03
2018-12-29T04:07:36.388Z,3.66
2018-12-29T04:10:09.021Z,3.67
2018-12-29T04:12:39.196Z,3.56
2018-12-29T04:15:06.970Z,3.69
2018-12-29T04:17:35.586Z,3.56
2018-12-29T04:20:04.421Z,3.71
2018-12-29T04:22:32.424Z,3.71
2018-12-29T04:25:00.965Z,3.74
2018-12-29T04:27:29.266Z,3.77
2018-12-29T04:29:57.257Z,3.78
2018-12-29T04:32:25.467Z,3.76
2018-12-29T04:34:54.243Z,3.75
2018-12-29T04:37:22.630Z,3.73
2018-12-29T04:39:51.110Z,3.70
2018-12-29T04:42:19.776Z,3.67
2018-12-29T04:44:47.949Z,3.67
2018-12-29T04:47:16.431Z,3.67
2018-12-29T04:49:44.409Z,3.50
2018-12-29T04:52:12.413Z,3.64
2018-12-29T04:54:41.430Z,3.59
2018-12-29T04:57:09.850Z,3.62
2018-12-29T04:59:37.971Z,3.53
2018-12-29T05:02:07.014Z,3.36
2018-12-29T05:04:36.086Z,3.63
2018-12-29T05:07:04.177Z,3.63
2018-12-29T05:09:32.762Z,3.64
2018-12-29T05:12:01.027Z,3.64
2018-12-29T05:14:30.044Z,3.64
2018-12-29T05:17:04.934Z,3.67
2018-12-29T05:19:33.014Z,3.66
2018-12-29T05:22:01.206Z,3.69
2018-12-29T05:24:29.779Z,3.70
2018-12-29T05:26:58.233Z,3.70
2018-12-29T05:29:26.318Z,3.69
2018-12-29T05:31:56.274Z,3.67
2018-12-29T05:34:25.324Z,3.69
2018-12-29T05:36:53.315Z,3.69
2018-12-29T05:39:21.842Z,1.90
2018-12-29T05:41:50.477Z,3.67
2018-12-29T05:44:18.705Z,2.02
2018-12-29T05:46:47.445Z,3.19
2018-12-29T05:49:15.212Z,3.52
2018-12-29T05:51:43.220Z,3.65
2018-12-29T05:54:11.725Z,3.61
2018-12-29T05:56:39.930Z,3.60
2018-12-29T05:59:08.231Z,3.64
2018-12-29T06:01:36.765Z,3.61
2018-12-29T06:04:05.045Z,3.62
2018-12-29T06:06:33.324Z,3.65
2018-12-29T06:09:03.307Z,3.64
2018-12-29T06:11:31.817Z,3.62
2018-12-29T06:13:59.562Z,3.31
2018-12-29T06:16:28.050Z,3.61
2018-12-29T06:18:55.924Z,3.61
2018-12-29T06:21:23.738Z,3.60
2018-12-29T06:23:52.214Z,3.61
2018-12-29T06:26:20.226Z,3.60
2018-12-29T06:28:48.250Z,3.61
2018-12-29T06:31:16.437Z,3.61
2018-12-29T06:33:44.532Z,3.60
2018-12-29T06:36:12.550Z,3.58
2018-12-29T06:38:40.627Z,3.25
2018-12-29T06:41:08.973Z,3.61
2018-12-29T06:43:37.347Z,3.25
2018-12-29T06:46:05.758Z,3.60
2018-12-29T06:48:33.873Z,3.60
2018-12-29T06:51:01.967Z,3.60
2018-12-29T06:53:29.947Z,3.60
2018-12-29T06:55:58.003Z,3.28
2018-12-29T06:58:25.995Z,3.61
2018-12-29T07:00:54.212Z,3.59
2018-12-29T07:03:22.046Z,3.60
2018-12-29T07:05:50.659Z,3.60
2018-12-29T07:08:18.559Z,3.63
2018-12-29T07:10:46.854Z,3.60
2018-12-29T07:13:14.800Z,3.62
2018-12-29T07:15:43.922Z,2.45
2018-12-29T07:18:11.740Z,3.14
2018-12-29T07:20:39.870Z,3.65
2018-12-29T07:23:07.680Z,3.65
2018-12-29T07:25:35.572Z,3.54
2018-12-29T07:28:03.357Z,3.65
2018-12-29T07:30:31.735Z,3.53
2018-12-29T07:33:00.001Z,3.67
2018-12-29T07:35:28.507Z,3.68
2018-12-29T07:37:56.559Z,3.70
2018-12-29T07:40:24.928Z,3.71
2018-12-29T07:42:53.479Z,3.74
2018-12-29T07:45:22.027Z,3.75
2018-12-29T07:47:49.894Z,3.76
2018-12-29T07:50:18.356Z,3.76
2018-12-29T07:52:47.212Z,3.54
2018-12-29T07:55:15.546Z,3.78
2018-12-29T07:57:44.754Z,3.67
2018-12-29T08:00:12.634Z,3.81
2018-12-29T08:02:40.558Z,3.80
2018-12-29T08:05:09.113Z,3.80
2018-12-29T08:07:37.130Z,3.82
2018-12-29T08:10:06.538Z,3.82
2018-12-29T08:12:35.010Z,3.82
2018-12-29T08:15:03.102Z,3.85
2018-12-29T08:17:30.909Z,3.86
2018-12-29T08:19:59.128Z,3.67
2018-12-29T08:22:27.075Z,3.77
2018-12-29T08:24:55.092Z,3.91
2018-12-29T08:27:23.143Z,3.88
2018-12-29T08:29:51.318Z,3.96
2018-12-29T08:32:19.173Z,3.99
2018-12-29T08:34:47.664Z,4.01
2018-12-29T08:37:15.837Z,4.07
2018-12-29T08:39:44.107Z,4.10
2018-12-29T08:42:12.308Z,4.11
2018-12-29T08:44:40.590Z,4.09
2018-12-29T08:47:08.704Z,4.00
2018-12-29T08:49:37.099Z,4.14
2018-12-29T08:52:06.522Z,4.05
2018-12-29T08:54:35.451Z,3.84
2018-12-29T08:57:04.259Z,3.62
2018-12-29T08:59:32.147Z,4.06
2018-12-29T09:02:00.637Z,4.22
2018-12-29T09:04:28.803Z,4.17
2018-12-29T09:06:57.461Z,4.33
2018-12-29T09:09:26.883Z,4.32
2018-12-29T09:11:56.653Z,4.30
2018-12-29T09:14:24.676Z,4.32
2018-12-29T09:16:53.497Z,4.35
2018-12-29T09:19:27.261Z,4.36
2018-12-29T09:21:49.706Z,2.74
2018-12-29T09:24:17.682Z,4.41
2018-12-29T09:26:45.688Z,4.44
2018-12-29T09:29:14.703Z,4.47
2018-12-29T09:31:43.145Z,4.50
2018-12-29T09:34:11.647Z,4.55
2018-12-29T09:36:40.348Z,4.59
2018-12-29T09:39:09.500Z,4.64
2018-12-29T09:41:37.572Z,4.68
2018-12-29T09:44:05.757Z,4.50
2018-12-29T09:46:34.454Z,4.76
2018-12-29T09:49:03.364Z,4.78
2018-12-29T09:51:31.313Z,4.77
2018-12-29T09:53:59.216Z,4.79
2018-12-29T09:56:30.175Z,4.38
2018-12-29T09:58:59.559Z,4.88
2018-12-29T10:01:28.659Z,4.94
2018-12-29T10:03:56.914Z,4.96
2018-12-29T10:06:25.785Z,5.01
2018-12-29T10:08:54.021Z,5.06
2018-12-29T10:11:23.712Z,5.00
2018-12-29T10:13:53.070Z,5.18
2018-12-29T10:16:20.978Z,5.23
2018-12-29T10:18:50.911Z,5.25
2018-12-29T10:21:19.286Z,5.28
2018-12-29T10:23:47.398Z,5.30
2018-12-29T10:26:17.282Z,5.28
2018-12-29T10:28:47.342Z,5.19
2018-12-29T10:31:18.294Z,5.00
2018-12-29T10:33:50.425Z,5.37
2018-12-29T10:36:18.515Z,5.37
2018-12-29T10:38:46.530Z,5.42
2018-12-29T10:41:15.054Z,5.43
2018-12-29T10:43:43.661Z,5.43
2018-12-29T10:46:12.467Z,5.46
2018-12-29T10:48:40.366Z,5.41
2018-12-29T10:51:10.199Z,4.77
2018-12-29T10:53:39.610Z,5.31
2018-12-29T10:56:08.385Z,5.30
2018-12-29T10:58:36.171Z,5.43
2018-12-29T11:01:04.253Z,5.61
2018-12-29T11:03:32.779Z,5.77
2018-12-29T11:06:00.951Z,5.88
2018-12-29T11:08:29.305Z,5.92
2018-12-29T11:10:59.999Z,5.94
2018-12-29T11:13:29.926Z,5.98
2018-12-29T11:15:59.024Z,6.02
2018-12-29T11:18:27.935Z,6.09
2018-12-29T11:20:56.142Z,6.13
2018-12-29T11:23:24.004Z,6.16
2018-12-29T11:25:53.587Z,6.19
2018-12-29T11:28:24.265Z,6.25
2018-12-29T11:30:52.699Z,6.27
2018-12-29T11:33:21.542Z,6.26
2018-12-29T11:35:50.580Z,6.14
2018-12-29T11:38:18.991Z,6.23
2018-12-29T11:40:51.662Z,6.23
2018-12-29T11:43:20.191Z,6.18
2018-12-29T11:45:48.482Z,6.17
2018-12-29T11:48:19.842Z,5.96
2018-12-29T11:50:47.667Z,6.22
2018-12-29T11:53:15.828Z,6.24
2018-12-29T11:55:44.231Z,6.25
2018-12-29T11:58:12.378Z,6.28
2018-12-29T12:00:40.331Z,6.32
2018-12-29T12:03:08.873Z,6.35
2018-12-29T12:05:37.127Z,4.62
2018-12-29T12:08:05.360Z,4.85
2018-12-29T12:10:36.219Z,6.02
2018-12-29T12:13:07.036Z,5.84
2018-12-29T12:15:35.167Z,6.42
2018-12-29T12:18:05.072Z,6.42
2018-12-29T12:20:34.119Z,6.39
2018-12-29T12:23:02.663Z,6.40
2018-12-29T12:25:31.873Z,6.38
2018-12-29T12:28:00.653Z,6.38
2018-12-29T12:30:28.797Z,4.69
2018-12-29T12:32:57.330Z,6.30
2018-12-29T12:35:27.717Z,6.31
2018-12-29T12:37:55.840Z,6.14
2018-12-29T12:40:24.405Z,6.27
2018-12-29T12:42:52.278Z,6.04
2018-12-29T12:45:20.333Z,6.28
2018-12-29T12:47:49.160Z,6.31
2018-12-29T12:50:17.824Z,5.89
2018-12-29T12:52:46.805Z,6.34
2018-12-29T12:55:15.022Z,5.54
2018-12-29T12:57:43.410Z,6.33
2018-12-29T13:00:12.355Z,6.32
2018-12-29T13:02:40.253Z,6.34
2018-12-29T13:05:09.354Z,6.34
2018-12-29T13:07:38.008Z,6.34
2018-12-29T13:10:07.241Z,6.31
2018-12-29T13:12:35.829Z,6.31
2018-12-29T13:15:05.052Z,6.27
2018-12-29T13:17:33.136Z,6.24
2018-12-29T13:20:05.544Z,6.24
2018-12-29T13:22:34.651Z,6.22
2018-12-29T13:25:06.374Z,6.23
2018-12-29T13:27:38.084Z,5.17
2018-12-29T13:30:06.973Z,6.29
2018-12-29T13:32:35.090Z,6.29
2018-12-29T13:35:03.156Z,6.25
2018-12-29T13:37:31.675Z,6.22
2018-12-29T13:39:59.662Z,6.19
2018-12-29T13:42:27.626Z,5.82
2018-12-29T13:44:55.658Z,6.14
2018-12-29T13:47:24.834Z,6.14
2018-12-29T13:49:53.132Z,6.11
2018-12-29T13:52:22.778Z,6.08
2018-12-29T13:54:53.339Z,6.05
2018-12-29T13:57:21.310Z,6.01
2018-12-29T13:59:49.579Z,6.01
2018-12-29T14:02:18.932Z,6.01
2018-12-29T14:04:46.810Z,6.00
2018-12-29T14:07:15.022Z,5.98
2018-12-29T14:09:45.861Z,5.95
2018-12-29T14:12:14.319Z,5.92
2018-12-29T14:14:42.673Z,5.87
2018-12-29T14:17:10.787Z,5.81
2018-12-29T14:19:38.858Z,5.78
2018-12-29T14:22:06.675Z,5.76
2018-12-29T14:24:36.279Z,5.74
2018-12-29T14:27:04.870Z,5.70
2018-12-29T14:29:32.830Z,5.67
2018-12-29T14:32:02.961Z,5.51
2018-12-29T14:34:32.078Z,5.60
2018-12-29T14:37:01.824Z,5.56
2018-12-29T14:39:29.634Z,5.50
2018-12-29T14:41:57.782Z,5.46
2018-12-29T14:44:25.932Z,5.44
2018-12-29T14:46:55.460Z,5.41
2018-12-29T14:49:23.663Z,5.37
2018-12-29T14:51:51.624Z,5.32
2018-12-29T14:54:19.829Z,4.93
2018-12-29T14:56:47.669Z,5.26
2018-12-29T14:59:16.233Z,5.23
2018-12-29T15:01:44.906Z,5.20
2018-12-29T15:04:12.720Z,5.17
2018-12-29T15:06:41.148Z,5.13
2018-12-29T15:09:10.064Z,4.48
2018-12-29T15:11:38.670Z,5.08
2018-12-29T15:14:06.694Z,5.04
2018-12-29T15:16:35.322Z,3.72
2018-12-29T15:19:03.926Z,5.04
2018-12-29T15:21:31.835Z,5.03
2018-12-29T15:24:01.084Z,5.03
2018-12-29T15:26:29.692Z,4.97
2018-12-29T15:28:57.678Z,4.97
2018-12-29T15:31:26.008Z,4.94
2018-12-29T15:33:54.098Z,4.94
2018-12-29T15:36:22.425Z,4.73
2018-12-29T15:38:51.935Z,4.95
2018-12-29T15:41:18.920Z,4.98
2018-12-29T15:43:47.694Z,4.30
2018-12-29T15:46:16.004Z,5.02
2018-12-29T15:48:50.937Z,5.08
2018-12-29T15:51:12.048Z,5.09
2018-12-29T15:53:40.881Z,5.11
2018-12-29T15:56:08.821Z,5.13
2018-12-29T15:58:36.979Z,5.14
2018-12-29T16:01:05.238Z,5.19
2018-12-29T16:03:33.522Z,5.21
2018-12-29T16:06:02.481Z,5.24
2018-12-29T16:08:32.870Z,5.28
2018-12-29T16:11:04.514Z,5.31
2018-12-29T16:13:32.440Z,5.32
2018-12-29T16:16:00.225Z,5.34
2018-12-29T16:18:29.936Z,5.34
2018-12-29T16:21:00.173Z,4.59
2018-12-29T16:23:28.430Z,5.26
2018-12-29T16:25:56.800Z,5.38
2018-12-29T16:28:25.824Z,4.57
2018-12-29T16:30:53.977Z,5.37
2018-12-29T16:33:22.334Z,5.36
2018-12-29T16:35:50.501Z,5.34
2018-12-29T16:38:18.415Z,5.34
2018-12-29T16:40:46.264Z,5.34
2018-12-29T16:43:14.304Z,5.36
2018-12-29T16:45:43.231Z,4.12
2018-12-29T16:48:12.205Z,5.41
2018-12-29T16:50:41.025Z,5.41
2018-12-29T16:53:10.665Z,5.29
2018-12-29T16:55:38.781Z,5.19
2018-12-29T16:58:07.142Z,5.44
